Weather at Municipal de Vitacura Airport

Public forecast

Using degrees Celsius for public forecast. Weather courtesy of forecast.io.

Closest aviation weather report (METAR) to Municipal de Vitacura Airport

Closest report is Eulogio Sánchez Airport, 4.9 nm (9.0 km) SSE. Retrieved 2021/09/16 19:00 UTC (17 minutes ago):

SCTB 161900Z 23006KT CAVOK 24/M00 Q1017

Closest aviation forecast (TAF) to Municipal de Vitacura Airport

Closest forecast is Comodoro Arturo Merino Benítez International Airport, 10.2 nm (19.0 km) W. Retrieved 2021/09/16 18:00 UTC (1 hour ago):

TAF SCEL 161600Z 1618/1718 18010KT CAVOK TX26/1618Z TN05/1711Z BECMG 1702/1704 17004KT 7000 NSC BECMG 1707/1709 VRB02KT 3000 BR TEMPO 1709/1712 0800 BCFG SCT005 BECMG 1716/1718 18005KT 7000 NSC